createdAt,value
2017-08-23T00:01:56.390Z,4.43
2017-08-23T00:04:27.719Z,4.23
2017-08-23T00:06:59.048Z,4.20
2017-08-23T00:09:30.468Z,3.73
2017-08-23T00:12:02.538Z,4.40
2017-08-23T00:14:33.914Z,3.47
2017-08-23T00:17:05.467Z,4.20
2017-08-23T00:19:36.779Z,3.90
2017-08-23T00:22:08.246Z,3.87
2017-08-23T00:24:41.017Z,4.27
2017-08-23T00:27:12.476Z,4.07
2017-08-23T00:29:44.957Z,4.80
2017-08-23T00:32:16.373Z,4.80
2017-08-23T00:34:47.741Z,4.77
2017-08-23T00:37:19.143Z,4.27
2017-08-23T00:39:50.516Z,4.70
2017-08-23T00:42:22.897Z,4.83
2017-08-23T00:44:54.259Z,4.63
2017-08-23T00:47:25.991Z,4.93
2017-08-23T00:49:57.543Z,4.50
2017-08-23T00:52:29.240Z,6.77
2017-08-23T00:55:00.599Z,4.83
2017-08-23T00:57:31.931Z,5.40
2017-08-23T01:00:03.946Z,4.93
2017-08-23T01:02:35.300Z,5.17
2017-08-23T01:05:07.133Z,6.57
2017-08-23T01:07:38.509Z,5.10
2017-08-23T01:10:10.840Z,5.80
2017-08-23T01:12:43.157Z,4.23
2017-08-23T01:15:14.497Z,5.77
2017-08-23T01:17:46.760Z,4.93
2017-08-23T01:20:18.198Z,5.23
2017-08-23T01:22:50.522Z,5.67
2017-08-23T01:25:22.067Z,6.23
2017-08-23T01:27:53.383Z,6.50
2017-08-23T01:30:24.952Z,5.83
2017-08-23T01:32:56.308Z,5.53
2017-08-23T01:35:27.733Z,6.87
2017-08-23T01:37:59.084Z,5.60
2017-08-23T01:40:30.561Z,5.80
2017-08-23T01:43:02.213Z,5.10
2017-08-23T01:45:33.558Z,6.30
2017-08-23T01:48:05.612Z,5.20
2017-08-23T01:50:36.964Z,7.53
2017-08-23T01:53:08.328Z,6.17
2017-08-23T01:55:40.526Z,6.07
2017-08-23T01:58:12.263Z,5.63
2017-08-23T02:00:45.437Z,5.30
2017-08-23T02:03:17.504Z,5.47
2017-08-23T02:05:50.040Z,4.80
2017-08-23T02:08:21.415Z,6.80
2017-08-23T02:10:52.804Z,5.00
2017-08-23T02:13:24.202Z,5.47
2017-08-23T02:15:56.022Z,6.13
2017-08-23T02:18:28.890Z,5.43
2017-08-23T02:21:00.679Z,5.33
2017-08-23T02:23:32.564Z,6.07
2017-08-23T02:26:05.499Z,4.83
2017-08-23T02:28:37.184Z,5.77
2017-08-23T02:31:08.677Z,4.77
2017-08-23T02:33:40.942Z,4.77
2017-08-23T02:36:12.561Z,5.40
2017-08-23T02:38:45.223Z,4.67
2017-08-23T02:41:16.560Z,4.30
2017-08-23T02:43:47.992Z,4.20
2017-08-23T02:46:19.522Z,4.10
2017-08-23T02:48:51.177Z,3.70
2017-08-23T02:51:22.595Z,3.33
2017-08-23T02:53:53.964Z,4.00
2017-08-23T02:56:31.388Z,3.90
2017-08-23T02:59:03.237Z,3.93
2017-08-23T03:01:34.596Z,4.83
2017-08-23T03:04:07.166Z,4.70
2017-08-23T03:06:38.531Z,4.27
2017-08-23T03:09:09.873Z,4.83
2017-08-23T03:11:41.426Z,5.07
2017-08-23T03:14:14.224Z,5.40
2017-08-23T03:16:46.883Z,5.27
2017-08-23T03:19:18.247Z,5.37
2017-08-23T03:21:49.647Z,5.03
2017-08-23T03:24:21.616Z,5.73
2017-08-23T03:26:53.784Z,5.20
2017-08-23T03:29:25.150Z,5.60
2017-08-23T03:31:56.475Z,5.63
2017-08-23T03:34:28.453Z,6.13
2017-08-23T03:36:59.818Z,6.20
2017-08-23T03:39:31.298Z,6.40
2017-08-23T03:42:03.110Z,5.80
2017-08-23T03:44:34.505Z,6.67
2017-08-23T03:47:05.945Z,6.50
2017-08-23T03:49:37.311Z,6.60
2017-08-23T03:52:08.941Z,7.07
2017-08-23T03:54:40.510Z,6.00
2017-08-23T03:57:11.881Z,5.97
2017-08-23T03:59:45.472Z,6.43
2017-08-23T04:02:16.977Z,6.20
2017-08-23T04:04:48.329Z,6.70
2017-08-23T04:07:19.668Z,7.27
2017-08-23T04:09:51.009Z,6.60
2017-08-23T04:12:22.385Z,7.10
2017-08-23T04:14:53.737Z,6.27
2017-08-23T04:17:25.105Z,10.00
2017-08-23T04:19:56.451Z,9.50
2017-08-23T04:22:27.976Z,7.00
2017-08-23T04:24:59.328Z,7.07
2017-08-23T04:27:30.687Z,6.60
2017-08-23T04:30:03.403Z,6.50
2017-08-23T04:32:34.726Z,6.50
2017-08-23T04:35:06.073Z,6.43
2017-08-23T04:37:37.436Z,10.20
2017-08-23T04:40:08.832Z,7.30
2017-08-23T04:42:41.161Z,8.33
2017-08-23T04:45:12.568Z,8.40
2017-08-23T04:47:44.814Z,8.17
2017-08-23T04:50:16.238Z,7.80
2017-08-23T04:52:48.009Z,7.83
2017-08-23T04:55:19.379Z,7.90
2017-08-23T04:57:50.916Z,9.60
2017-08-23T05:00:22.607Z,8.20
2017-08-23T05:02:54.015Z,10.27
2017-08-23T05:05:25.531Z,9.40
2017-08-23T05:07:56.875Z,9.13
2017-08-23T05:10:28.294Z,10.30
2017-08-23T05:12:59.705Z,9.97
2017-08-23T05:15:31.078Z,8.30
2017-08-23T05:18:03.659Z,8.03
2017-08-23T05:20:35.127Z,8.90
2017-08-23T05:23:06.462Z,8.80
2017-08-23T05:25:37.827Z,8.90
2017-08-23T05:28:09.260Z,8.70
2017-08-23T05:30:41.300Z,8.23
2017-08-23T05:33:14.749Z,7.43
2017-08-23T05:35:46.460Z,8.87
2017-08-23T05:38:17.816Z,9.03
2017-08-23T05:40:49.421Z,11.80
2017-08-23T05:43:20.764Z,10.10
2017-08-23T05:45:52.128Z,9.20
2017-08-23T05:48:23.474Z,10.10
2017-08-23T05:50:54.883Z,8.70
2017-08-23T05:53:26.250Z,9.57
2017-08-23T05:55:57.643Z,7.90
2017-08-23T05:58:29.058Z,8.60
2017-08-23T06:01:00.677Z,7.23
2017-08-23T06:03:32.095Z,7.90
2017-08-23T06:06:04.754Z,7.90
2017-08-23T06:08:36.196Z,7.70
2017-08-23T06:11:07.687Z,7.50
2017-08-23T06:13:39.046Z,9.10
2017-08-23T06:16:11.823Z,8.20
2017-08-23T06:18:44.861Z,8.53
2017-08-23T06:21:16.306Z,8.03
2017-08-23T06:23:47.771Z,8.37
2017-08-23T06:26:19.631Z,7.50
2017-08-23T06:28:50.988Z,7.97
2017-08-23T06:31:22.537Z,9.80
2017-08-23T06:33:54.078Z,8.60
2017-08-23T06:36:25.488Z,9.37
2017-08-23T06:38:56.888Z,8.80
2017-08-23T06:41:28.299Z,8.80
2017-08-23T06:43:59.789Z,9.10
2017-08-23T06:46:31.248Z,8.30
2017-08-23T06:49:02.853Z,8.50
2017-08-23T06:51:34.225Z,8.37
2017-08-23T06:54:08.606Z,9.97
2017-08-23T06:56:40.526Z,8.73
2017-08-23T06:59:12.029Z,8.90
2017-08-23T07:01:44.717Z,8.27
2017-08-23T07:04:16.142Z,8.30
2017-08-23T07:06:47.556Z,8.23
2017-08-23T07:09:18.961Z,8.90
2017-08-23T07:11:50.361Z,7.80
2017-08-23T07:14:22.764Z,10.17
2017-08-23T07:16:54.166Z,8.40
2017-08-23T07:19:25.784Z,7.37
2017-08-23T07:21:57.539Z,6.90
2017-08-23T07:24:28.876Z,9.30
2017-08-23T07:27:00.358Z,9.00
2017-08-23T07:29:31.791Z,9.50
2017-08-23T07:32:04.456Z,9.40
2017-08-23T07:34:35.832Z,9.57
2017-08-23T07:37:07.369Z,7.80
2017-08-23T07:39:41.173Z,7.40
2017-08-23T07:42:13.640Z,6.83
2017-08-23T07:44:46.170Z,7.03
2017-08-23T07:47:17.591Z,6.40
2017-08-23T07:51:17.929Z,7.13
2017-08-23T07:53:49.333Z,8.00
2017-08-23T07:56:20.725Z,7.13
2017-08-23T07:58:57.754Z,8.93
2017-08-23T08:01:29.145Z,7.00
2017-08-23T08:04:00.498Z,6.10
2017-08-23T08:06:31.850Z,6.30
2017-08-23T08:09:03.754Z,6.30
2017-08-23T08:11:35.145Z,5.60
2017-08-23T08:14:06.838Z,4.80
2017-08-23T08:16:38.262Z,6.00
2017-08-23T08:19:09.636Z,3.83
2017-08-23T08:21:41.068Z,4.00
2017-08-23T08:24:13.927Z,4.30
2017-08-23T08:26:47.786Z,4.83
2017-08-23T08:29:19.404Z,3.90
2017-08-23T08:31:50.777Z,3.60
2017-08-23T08:34:22.195Z,3.67
2017-08-23T08:36:54.049Z,3.80
2017-08-23T08:41:50.776Z,3.80
2017-08-23T08:44:22.096Z,3.47
2017-08-23T08:46:54.490Z,3.53
2017-08-23T08:49:25.884Z,4.30
2017-08-23T08:51:57.206Z,4.33
2017-08-23T08:54:28.554Z,3.70
2017-08-23T08:56:59.937Z,3.60
2017-08-23T08:59:33.610Z,4.10
2017-08-23T09:02:05.504Z,4.00
2017-08-23T09:04:37.015Z,4.07
2017-08-23T09:07:08.780Z,4.67
2017-08-23T09:09:40.725Z,3.93
2017-08-23T09:12:12.404Z,5.03
2017-08-23T09:14:45.385Z,3.40
2017-08-23T09:17:16.684Z,4.40
2017-08-23T09:19:49.067Z,4.33
2017-08-23T09:22:20.394Z,3.60
2017-08-23T09:24:51.753Z,4.80
2017-08-23T09:27:23.361Z,4.60
2017-08-23T09:29:54.705Z,4.23
2017-08-23T09:32:26.048Z,3.93
2017-08-23T09:34:57.654Z,5.00
2017-08-23T09:37:29.101Z,4.63
2017-08-23T09:40:00.440Z,4.83
2017-08-23T09:42:32.831Z,4.60
2017-08-23T09:45:05.360Z,4.57
2017-08-23T09:47:37.125Z,3.90
2017-08-23T09:50:08.494Z,4.03
2017-08-23T09:52:40.150Z,4.20
2017-08-23T09:55:11.568Z,4.93
2017-08-23T09:57:45.724Z,14.30
2017-08-23T10:00:18.541Z,5.07
2017-08-23T10:02:52.442Z,6.00
2017-08-23T10:11:28.240Z,3.50
2017-08-23T10:13:59.640Z,3.90
2017-08-23T10:16:31.647Z,3.90
2017-08-23T10:19:03.685Z,3.90
2017-08-23T10:21:36.536Z,4.17
2017-08-23T10:24:09.546Z,3.90
2017-08-23T10:26:41.226Z,4.43
2017-08-23T10:29:14.537Z,3.50
2017-08-23T10:31:48.984Z,3.20
2017-08-23T10:34:24.383Z,3.07
2017-08-23T10:36:57.427Z,3.60
2017-08-23T10:39:30.211Z,4.90
2017-08-23T10:42:03.056Z,6.90
2017-08-23T10:44:34.700Z,7.50
2017-08-23T10:47:07.640Z,4.63
2017-08-23T10:49:39.236Z,2.50
2017-08-23T10:52:10.535Z,3.40
2017-08-23T10:54:42.277Z,2.77
2017-08-23T10:57:13.891Z,2.70
2017-08-23T10:59:45.212Z,2.87
2017-08-23T11:02:19.162Z,2.80
2017-08-23T11:04:50.954Z,2.50
2017-08-23T11:07:25.121Z,3.20
2017-08-23T11:09:56.831Z,2.97
2017-08-23T11:12:30.831Z,2.97
2017-08-23T11:15:03.992Z,2.80
2017-08-23T11:17:35.834Z,2.73
2017-08-23T11:59:58.695Z,2.70
2017-08-23T12:20:07.988Z,3.07
2017-08-23T14:31:29.113Z,2.95
2017-08-23T14:34:00.469Z,2.50
2017-08-23T14:36:32.094Z,2.35
2017-08-23T14:39:03.778Z,2.28
2017-08-23T14:41:35.553Z,2.08
2017-08-23T14:44:06.871Z,2.12
2017-08-23T14:46:38.179Z,2.12
2017-08-23T14:49:10.225Z,1.85
2017-08-23T14:51:41.646Z,1.70
2017-08-23T14:54:13.254Z,1.80
2017-08-23T14:56:44.884Z,1.90
2017-08-23T14:59:16.613Z,1.77
2017-08-23T15:01:47.972Z,2.03
2017-08-23T15:04:19.803Z,1.70
2017-08-23T15:06:51.181Z,1.80
2017-08-23T15:09:24.258Z,1.70
2017-08-23T15:11:56.032Z,2.20
2017-08-23T15:14:28.201Z,2.10
2017-08-23T15:16:59.505Z,1.90
2017-08-23T15:19:31.099Z,2.03
2017-08-23T15:22:03.401Z,1.70
2017-08-23T15:24:34.741Z,1.73
2017-08-23T15:27:06.355Z,1.60
2017-08-23T15:29:37.645Z,2.00
2017-08-23T15:32:09.266Z,1.67
2017-08-23T15:34:40.563Z,1.80
2017-08-23T15:37:11.860Z,1.92
2017-08-23T15:39:43.455Z,2.10
2017-08-23T15:42:14.795Z,1.85
2017-08-23T15:44:46.175Z,2.17
2017-08-23T15:47:17.819Z,1.67
2017-08-23T15:49:49.161Z,26.33
2017-08-23T15:52:22.739Z,2.05
2017-08-23T15:54:54.148Z,1.67
2017-08-23T15:57:29.051Z,1.37
2017-08-23T16:00:00.871Z,1.67
2017-08-23T16:02:32.185Z,1.92
2017-08-23T16:05:04.711Z,1.85
2017-08-23T16:07:36.345Z,1.50
2017-08-23T16:10:07.663Z,1.58
2017-08-23T16:12:39.041Z,1.80
2017-08-23T16:15:10.824Z,1.65
2017-08-23T16:17:42.186Z,1.80
2017-08-23T16:20:13.826Z,1.50
2017-08-23T16:22:45.200Z,1.45
2017-08-23T16:25:16.526Z,1.48
2017-08-23T16:27:49.031Z,1.80
2017-08-23T16:30:20.543Z,1.40
2017-08-23T16:32:51.910Z,1.70
2017-08-23T16:35:24.552Z,1.85
2017-08-23T16:37:55.881Z,1.50
2017-08-23T16:40:28.229Z,1.60
2017-08-23T16:42:59.541Z,1.60
2017-08-23T16:45:30.865Z,1.70
2017-08-23T16:48:05.208Z,1.40
2017-08-23T16:50:37.483Z,1.87
2017-08-23T16:53:09.600Z,2.00
2017-08-23T16:55:41.124Z,1.80
2017-08-23T16:58:12.535Z,2.03
2017-08-23T17:00:44.139Z,2.00
2017-08-23T17:03:15.612Z,1.67
2017-08-23T17:05:47.196Z,1.73
2017-08-23T17:08:18.569Z,1.93
2017-08-23T17:10:49.891Z,2.00
2017-08-23T17:13:22.580Z,1.63
2017-08-23T17:15:54.075Z,1.83
2017-08-23T17:18:27.327Z,1.70
2017-08-23T17:20:58.930Z,2.37
2017-08-23T17:23:30.273Z,2.80
2017-08-23T17:26:02.598Z,1.90
2017-08-23T17:28:34.221Z,1.90
2017-08-23T17:31:05.553Z,2.10
2017-08-23T17:33:36.855Z,2.60
2017-08-23T17:36:08.529Z,3.30
2017-08-23T17:38:39.889Z,2.30
2017-08-23T17:41:11.215Z,1.97
2017-08-23T17:43:42.833Z,4.30
2017-08-23T17:46:14.425Z,2.87
2017-08-23T17:48:45.748Z,2.90
2017-08-23T17:51:17.317Z,3.00
2017-08-23T17:53:48.833Z,2.20
2017-08-23T17:56:20.277Z,2.30
2017-08-23T17:58:51.928Z,2.50
2017-08-23T18:01:26.078Z,2.80
2017-08-23T18:03:57.534Z,2.90
2017-08-23T18:06:29.104Z,2.50
2017-08-23T18:09:00.422Z,3.10
2017-08-23T18:11:31.744Z,2.53
2017-08-23T18:14:04.607Z,2.97
2017-08-23T18:16:35.965Z,3.47
2017-08-23T18:19:07.280Z,3.03
2017-08-23T18:21:38.565Z,3.10
2017-08-23T18:24:09.877Z,8.60
2017-08-23T18:26:41.469Z,3.33
2017-08-23T18:29:12.817Z,6.40
2017-08-23T18:31:44.137Z,3.93
2017-08-23T18:34:15.715Z,4.50
2017-08-23T18:36:47.050Z,4.17
2017-08-23T18:39:18.493Z,3.40
2017-08-23T18:41:49.851Z,4.60
2017-08-23T18:44:21.731Z,4.30
2017-08-23T18:46:53.386Z,4.30
2017-08-23T18:49:26.181Z,4.20
2017-08-23T18:51:57.607Z,3.57
2017-08-23T18:54:29.597Z,4.33
2017-08-23T18:57:01.060Z,10.30
2017-08-23T18:59:32.658Z,6.17
2017-08-23T19:02:04.839Z,6.00
2017-08-23T19:04:36.164Z,6.50
2017-08-23T19:07:07.749Z,5.93
2017-08-23T19:09:39.067Z,6.20
2017-08-23T19:12:10.396Z,5.90
2017-08-23T19:14:42.242Z,5.30
2017-08-23T19:17:13.653Z,6.33
2017-08-23T19:19:44.982Z,6.30
2017-08-23T19:22:16.344Z,5.43
2017-08-23T19:24:47.701Z,6.90
2017-08-23T19:27:19.314Z,5.77
2017-08-23T19:29:50.625Z,6.20
2017-08-23T19:32:22.709Z,6.20
2017-08-23T19:34:54.321Z,7.10
2017-08-23T19:37:26.604Z,6.33
2017-08-23T19:39:57.967Z,7.57
2017-08-23T19:42:29.287Z,7.40
2017-08-23T19:45:00.737Z,6.90
2017-08-23T19:47:32.815Z,7.90
2017-08-23T19:50:05.300Z,9.57
2017-08-23T19:52:36.859Z,9.50
2017-08-23T19:55:08.506Z,7.93
2017-08-23T19:57:40.968Z,7.97
2017-08-23T20:00:12.288Z,7.77
2017-08-23T20:02:43.629Z,7.60
2017-08-23T20:05:14.941Z,8.97
2017-08-23T20:07:46.548Z,10.40
2017-08-23T20:10:17.920Z,12.30
2017-08-23T20:12:49.230Z,13.20
2017-08-23T20:15:21.128Z,16.03
2017-08-23T20:17:52.442Z,15.30
2017-08-23T20:20:24.525Z,14.67
2017-08-23T20:22:55.839Z,15.73
2017-08-23T20:25:28.017Z,16.70
2017-08-23T20:27:59.951Z,10.73
2017-08-23T20:30:31.377Z,9.60
2017-08-23T20:33:03.544Z,8.70
2017-08-23T20:35:35.341Z,12.47
2017-08-23T20:38:06.760Z,13.80
2017-08-23T20:40:38.532Z,14.13
2017-08-23T20:43:09.916Z,13.93
2017-08-23T20:45:41.367Z,14.63
2017-08-23T20:48:13.084Z,14.97
2017-08-23T20:50:44.472Z,14.20
2017-08-23T20:53:15.825Z,12.00
2017-08-23T20:55:47.687Z,7.43
2017-08-23T20:58:19.158Z,6.63
2017-08-23T21:00:50.787Z,6.50
2017-08-23T21:03:22.652Z,7.07
2017-08-23T21:05:54.284Z,5.60
2017-08-23T21:08:26.432Z,6.63
2017-08-23T21:10:57.769Z,7.80
2017-08-23T21:13:29.147Z,6.00
2017-08-23T21:16:00.796Z,6.57
2017-08-23T21:18:32.383Z,4.10
2017-08-23T21:21:04.057Z,4.50
2017-08-23T21:23:35.346Z,4.30
2017-08-23T21:26:13.884Z,4.43
2017-08-23T21:28:45.713Z,5.00
2017-08-23T21:31:17.044Z,4.70
2017-08-23T21:33:48.770Z,4.23
2017-08-23T21:36:20.709Z,4.60
2017-08-23T21:38:52.072Z,4.70
2017-08-23T21:41:25.956Z,4.13
2017-08-23T21:43:57.278Z,4.87
2017-08-23T21:46:28.595Z,5.00
2017-08-23T21:49:00.716Z,5.67
2017-08-23T21:51:32.126Z,4.97
2017-08-23T21:54:04.184Z,5.17
2017-08-23T21:56:35.504Z,4.83
2017-08-23T21:59:07.144Z,4.80
2017-08-23T22:01:38.516Z,4.10
2017-08-23T22:04:09.875Z,5.57
2017-08-23T22:06:41.718Z,4.27
2017-08-23T22:09:13.083Z,5.17
2017-08-23T22:11:44.607Z,4.97
2017-08-23T22:14:16.319Z,5.80
2017-08-23T22:16:47.727Z,6.07
2017-08-23T22:19:27.142Z,6.87
2017-08-23T22:21:59.027Z,5.83
2017-08-23T22:24:30.352Z,5.67
2017-08-23T22:27:01.712Z,5.40
2017-08-23T22:29:33.361Z,5.23
2017-08-23T22:32:05.230Z,5.20
2017-08-23T22:34:36.573Z,4.87
2017-08-23T22:37:08.345Z,5.70
2017-08-23T22:39:39.682Z,5.40
2017-08-23T22:42:11.026Z,5.03
2017-08-23T22:44:42.700Z,5.80
2017-08-23T22:47:14.037Z,4.43
2017-08-23T22:49:45.374Z,5.67
2017-08-23T22:52:17.185Z,4.47
2017-08-23T22:54:48.541Z,5.47
2017-08-23T22:57:20.726Z,5.10
2017-08-23T22:59:52.312Z,4.70
2017-08-23T23:02:25.396Z,6.33
2017-08-23T23:04:57.171Z,5.00
2017-08-23T23:07:29.233Z,5.77
2017-08-23T23:10:00.830Z,6.00
2017-08-23T23:12:32.851Z,5.00
2017-08-23T23:15:04.643Z,6.30
2017-08-23T23:17:36.024Z,5.83
2017-08-23T23:20:07.724Z,5.70
2017-08-23T23:22:39.197Z,5.43
2017-08-23T23:25:11.591Z,5.43
2017-08-23T23:27:43.341Z,4.80
2017-08-23T23:30:14.727Z,5.03
2017-08-23T23:32:46.208Z,6.40
2017-08-23T23:35:17.994Z,6.10
2017-08-23T23:37:49.302Z,4.90
2017-08-23T23:40:21.947Z,5.00
2017-08-23T23:42:53.667Z,5.20
2017-08-23T23:45:25.925Z,5.13
2017-08-23T23:47:57.499Z,5.13
2017-08-23T23:50:29.094Z,5.90
2017-08-23T23:53:00.576Z,5.03
2017-08-23T23:55:32.236Z,5.10
2017-08-23T23:58:05.150Z,5.13
